createdAt,value
2023-03-06T00:01:09.745Z,100.00
2023-03-06T00:03:36.916Z,100.00
2023-03-06T00:06:04.558Z,100.00
2023-03-06T00:08:32.185Z,100.00
2023-03-06T00:10:59.955Z,100.00
2023-03-06T00:13:30.302Z,100.00
2023-03-06T00:16:12.162Z,100.00
2023-03-06T00:18:40.474Z,100.00
2023-03-06T00:21:08.911Z,100.00
2023-03-06T00:23:36.656Z,100.00
2023-03-06T00:26:08.436Z,100.00
2023-03-06T00:28:36.396Z,100.00
2023-03-06T00:31:04.121Z,100.00
2023-03-06T00:33:32.385Z,100.00
2023-03-06T00:36:00.823Z,100.00
2023-03-06T00:38:31.857Z,100.00
2023-03-06T00:41:00.119Z,100.00
2023-03-06T00:43:27.210Z,100.00
2023-03-06T00:45:54.828Z,100.00
2023-03-06T00:48:23.203Z,100.00
2023-03-06T00:50:50.663Z,100.00
2023-03-06T00:53:19.180Z,100.00
2023-03-06T00:55:46.943Z,100.00
2023-03-06T00:58:14.619Z,100.00
2023-03-06T01:00:45.096Z,100.00
2023-03-06T01:03:13.693Z,100.00
2023-03-06T01:05:41.300Z,100.00
2023-03-06T01:08:18.269Z,100.00
2023-03-06T01:10:45.738Z,100.00
2023-03-06T01:13:14.319Z,100.00
2023-03-06T01:15:41.820Z,100.00
2023-03-06T01:18:09.361Z,100.00
2023-03-06T01:20:37.608Z,100.00
2023-03-06T01:23:06.050Z,100.00
2023-03-06T01:25:33.649Z,100.00
2023-03-06T01:28:01.063Z,100.00
2023-03-06T01:30:28.457Z,100.00
2023-03-06T01:32:56.048Z,100.00
2023-03-06T01:35:23.529Z,100.00
2023-03-06T01:37:52.028Z,100.00
2023-03-06T01:40:19.452Z,100.00
2023-03-06T01:42:49.852Z,100.00
2023-03-06T01:45:17.242Z,100.00
2023-03-06T01:47:45.532Z,100.00
2023-03-06T01:50:13.998Z,100.00
2023-03-06T01:52:49.787Z,100.00
2023-03-06T01:55:22.220Z,100.00
2023-03-06T01:57:55.526Z,100.00
2023-03-06T02:00:26.311Z,100.00
2023-03-06T02:02:57.190Z,100.00
2023-03-06T02:05:25.188Z,100.00
2023-03-06T02:07:54.943Z,100.00
2023-03-06T02:10:22.620Z,100.00
2023-03-06T02:12:52.113Z,100.00
2023-03-06T02:15:22.966Z,100.00
2023-03-06T02:17:52.042Z,100.00
2023-03-06T02:20:51.206Z,100.00
2023-03-06T02:23:36.800Z,100.00
2023-03-06T02:26:05.978Z,100.00
2023-03-06T02:28:33.129Z,100.00
2023-03-06T02:31:01.749Z,100.00
2023-03-06T02:33:31.663Z,100.00
2023-03-06T02:36:10.633Z,100.00
2023-03-06T02:38:44.961Z,100.00
2023-03-06T02:41:12.563Z,100.00
2023-03-06T02:43:41.275Z,100.00
2023-03-06T02:46:10.098Z,100.00
2023-03-06T02:48:38.458Z,100.00
2023-03-06T02:51:07.020Z,100.00
2023-03-06T02:53:35.460Z,100.00
2023-03-06T02:56:04.005Z,100.00
2023-03-06T02:58:31.296Z,100.00
2023-03-06T03:00:58.723Z,100.00
2023-03-06T03:03:25.840Z,100.00
2023-03-06T03:05:53.156Z,100.00
2023-03-06T03:08:22.986Z,100.00
2023-03-06T03:10:50.638Z,100.00
2023-03-06T03:13:19.848Z,100.00
2023-03-06T03:16:07.424Z,100.00
2023-03-06T03:18:36.028Z,100.00
2023-03-06T03:21:08.248Z,100.00
2023-03-06T03:23:35.728Z,100.00
2023-03-06T03:26:14.956Z,100.00
2023-03-06T03:28:42.704Z,100.00
2023-03-06T03:31:11.532Z,100.00
2023-03-06T03:33:40.422Z,100.00
2023-03-06T03:36:08.904Z,100.00
2023-03-06T03:38:42.406Z,100.00
2023-03-06T03:41:11.867Z,100.00
2023-03-06T03:43:40.264Z,100.00
2023-03-06T03:46:07.777Z,100.00
2023-03-06T03:48:36.246Z,100.00
2023-03-06T03:51:09.564Z,100.00
2023-03-06T03:53:36.562Z,100.00
2023-03-06T03:56:04.927Z,100.00
2023-03-06T03:58:33.289Z,100.00
2023-03-06T04:01:01.306Z,100.00
2023-03-06T04:03:28.749Z,100.00
2023-03-06T04:05:58.300Z,100.00
2023-03-06T04:08:28.510Z,100.00
2023-03-06T04:10:56.426Z,100.00
2023-03-06T04:13:25.664Z,100.00
2023-03-06T04:15:54.736Z,100.00
2023-03-06T04:18:23.743Z,100.00
2023-03-06T04:20:53.583Z,100.00
2023-03-06T04:23:23.208Z,100.00
2023-03-06T04:25:51.282Z,100.00
2023-03-06T04:28:18.593Z,100.00
2023-03-06T04:30:47.243Z,100.00
2023-03-06T04:33:14.846Z,100.00
2023-03-06T04:35:42.082Z,100.00
2023-03-06T04:38:10.711Z,100.00
2023-03-06T04:40:38.143Z,100.00
2023-03-06T04:43:06.521Z,100.00
2023-03-06T04:45:34.609Z,100.00
2023-03-06T04:48:02.264Z,100.00
2023-03-06T04:50:32.824Z,100.00
2023-03-06T04:53:02.000Z,100.00
2023-03-06T04:55:29.985Z,100.00
2023-03-06T04:57:58.263Z,100.00
2023-03-06T05:00:31.984Z,100.00
2023-03-06T05:03:01.291Z,100.00
2023-03-06T05:05:30.064Z,100.00
2023-03-06T05:07:59.534Z,100.00
2023-03-06T05:10:27.048Z,100.00
2023-03-06T05:12:54.385Z,100.00
2023-03-06T05:15:28.002Z,100.00
2023-03-06T05:17:56.762Z,100.00
2023-03-06T05:20:25.301Z,100.00
2023-03-06T05:22:53.666Z,100.00
2023-03-06T05:25:21.346Z,100.00
2023-03-06T05:27:49.463Z,100.00
2023-03-06T05:30:17.269Z,100.00
2023-03-06T05:32:44.815Z,100.00
2023-03-06T05:35:22.040Z,100.00
2023-03-06T05:37:51.380Z,100.00
2023-03-06T05:40:20.228Z,100.00
2023-03-06T05:42:48.750Z,100.00
2023-03-06T05:45:16.325Z,100.00
2023-03-06T05:47:44.684Z,100.00
2023-03-06T05:50:14.267Z,100.00
2023-03-06T05:52:41.907Z,100.00
2023-03-06T05:55:16.902Z,100.00
2023-03-06T05:57:45.362Z,100.00
2023-03-06T06:00:14.296Z,100.00
2023-03-06T06:02:43.179Z,100.00
2023-03-06T06:05:12.968Z,100.00
2023-03-06T06:07:41.181Z,100.00
2023-03-06T06:10:09.560Z,100.00
2023-03-06T06:12:37.104Z,100.00
2023-03-06T06:15:05.002Z,100.00
2023-03-06T06:17:32.543Z,100.00
2023-03-06T06:19:59.947Z,100.00
2023-03-06T06:22:27.433Z,100.00
2023-03-06T06:24:54.862Z,100.00
2023-03-06T06:27:22.393Z,100.00
2023-03-06T06:29:52.960Z,100.00
2023-03-06T06:32:20.643Z,100.00
2023-03-06T06:34:48.250Z,100.00
2023-03-06T06:37:17.863Z,100.00
2023-03-06T06:39:45.218Z,100.00
2023-03-06T06:42:30.476Z,100.00
2023-03-06T06:45:00.178Z,100.00
2023-03-06T06:47:27.742Z,100.00
2023-03-06T06:49:57.741Z,100.00
2023-03-06T06:52:27.103Z,100.00
2023-03-06T06:54:54.572Z,100.00
2023-03-06T06:57:22.207Z,100.00
2023-03-06T06:59:52.555Z,100.00
2023-03-06T07:02:22.672Z,100.00
2023-03-06T07:05:03.138Z,100.00
2023-03-06T07:07:34.446Z,100.00
2023-03-06T07:10:14.618Z,100.00
2023-03-06T07:12:42.193Z,100.00
2023-03-06T07:15:10.105Z,100.00
2023-03-06T07:17:37.418Z,100.00
2023-03-06T07:20:07.426Z,100.00
2023-03-06T07:22:48.705Z,100.00
2023-03-06T07:25:19.057Z,100.00
2023-03-06T07:27:52.850Z,100.00
2023-03-06T07:30:23.762Z,100.00
2023-03-06T07:33:02.316Z,100.00
2023-03-06T07:35:30.728Z,100.00
2023-03-06T07:37:58.367Z,100.00
2023-03-06T07:40:28.017Z,100.00
2023-03-06T07:43:13.024Z,100.00
2023-03-06T07:45:47.388Z,99.74
2023-03-06T07:48:15.309Z,98.92
2023-03-06T07:50:43.223Z,97.60
2023-03-06T07:53:11.425Z,96.02
2023-03-06T07:55:51.087Z,95.10
2023-03-06T07:58:19.914Z,94.12
2023-03-06T08:00:47.573Z,92.22
2023-03-06T08:03:15.506Z,92.38
2023-03-06T08:05:43.303Z,91.04
2023-03-06T08:08:13.148Z,90.60
2023-03-06T08:10:40.784Z,90.11
2023-03-06T08:13:09.325Z,89.18
2023-03-06T08:15:38.812Z,89.21
2023-03-06T08:18:07.899Z,88.29
2023-03-06T08:20:35.237Z,88.88
2023-03-06T08:23:02.657Z,88.37
2023-03-06T08:25:30.362Z,87.91
2023-03-06T08:27:57.563Z,88.83
2023-03-06T08:30:25.132Z,88.73
2023-03-06T08:32:52.540Z,88.13
2023-03-06T08:35:20.116Z,86.99
2023-03-06T08:37:47.433Z,85.76
2023-03-06T08:40:16.213Z,84.93
2023-03-06T08:42:48.280Z,83.84
2023-03-06T08:45:16.008Z,82.77
2023-03-06T08:47:43.698Z,83.17
2023-03-06T08:50:13.430Z,81.90
2023-03-06T08:52:43.145Z,80.73
2023-03-06T08:55:11.096Z,80.57
2023-03-06T08:57:38.336Z,78.73
2023-03-06T09:00:11.160Z,79.62
2023-03-06T09:02:40.485Z,77.44
2023-03-06T09:05:09.457Z,76.77
2023-03-06T09:07:36.866Z,74.78
2023-03-06T09:10:04.522Z,77.66
2023-03-06T09:12:49.447Z,77.54
2023-03-06T09:15:20.850Z,77.84
2023-03-06T09:17:49.445Z,76.23
2023-03-06T09:20:18.224Z,73.74
2023-03-06T09:22:48.517Z,73.31
2023-03-06T09:25:20.694Z,69.73
2023-03-06T09:27:58.219Z,69.72
2023-03-06T09:30:30.844Z,69.99
2023-03-06T09:32:58.496Z,67.83
2023-03-06T09:35:26.997Z,66.33
2023-03-06T09:37:54.546Z,67.13
2023-03-06T09:40:50.837Z,66.09
2023-03-06T09:43:37.335Z,64.62
2023-03-06T09:46:31.543Z,62.31
2023-03-06T09:49:10.560Z,59.34
2023-03-06T09:51:52.220Z,60.42
2023-03-06T09:54:30.701Z,58.80
2023-03-06T09:56:58.412Z,57.38
2023-03-06T09:59:26.619Z,58.18
2023-03-06T10:02:19.197Z,58.72
2023-03-06T10:04:55.021Z,59.43
2023-03-06T10:07:32.467Z,58.48
2023-03-06T10:10:08.065Z,55.75
2023-03-06T10:12:45.625Z,58.04
2023-03-06T10:15:22.392Z,57.07
2023-03-06T10:17:49.952Z,56.40
2023-03-06T10:20:34.258Z,56.27
2023-03-06T10:23:38.599Z,55.91
2023-03-06T10:26:15.657Z,52.82
2023-03-06T10:28:47.409Z,51.19
2023-03-06T10:31:21.278Z,53.46
2023-03-06T10:33:49.800Z,53.64
2023-03-06T10:36:20.345Z,54.26
2023-03-06T10:38:49.321Z,54.47
2023-03-06T10:41:30.229Z,55.37
2023-03-06T10:44:00.917Z,57.55
2023-03-06T10:46:48.090Z,57.72
2023-03-06T10:49:28.843Z,56.02
2023-03-06T10:52:10.063Z,54.86
2023-03-06T10:54:40.891Z,57.19
2023-03-06T10:57:30.163Z,58.18
2023-03-06T11:00:06.126Z,58.48
2023-03-06T11:02:37.640Z,59.10
2023-03-06T11:05:07.755Z,59.33
2023-03-06T11:07:55.592Z,59.39
2023-03-06T11:10:24.699Z,59.29
2023-03-06T11:13:00.253Z,61.39
2023-03-06T11:15:30.481Z,61.09
2023-03-06T11:18:05.225Z,59.01
2023-03-06T11:20:52.343Z,59.83
2023-03-06T11:23:44.958Z,61.29
2023-03-06T11:26:18.253Z,60.66
2023-03-06T11:29:01.152Z,60.83
2023-03-06T11:31:34.572Z,60.52
2023-03-06T11:34:11.993Z,60.83
2023-03-06T11:36:55.856Z,60.21
2023-03-06T11:39:42.515Z,60.70
2023-03-06T11:42:38.068Z,59.85
2023-03-06T11:45:19.633Z,59.16
2023-03-06T11:47:54.756Z,59.29
2023-03-06T11:50:44.239Z,59.48
2023-03-06T11:53:23.450Z,59.98
2023-03-06T11:55:56.202Z,59.64
2023-03-06T11:58:43.094Z,58.90
2023-03-06T12:01:47.709Z,60.76
2023-03-06T12:04:42.838Z,59.85
2023-03-06T12:07:31.897Z,59.52
2023-03-06T12:10:06.545Z,59.27
2023-03-06T12:12:54.225Z,60.22
2023-03-06T12:15:49.816Z,58.48
2023-03-06T12:18:46.090Z,59.55
2023-03-06T12:21:16.706Z,60.08
2023-03-06T12:23:58.760Z,60.15
2023-03-06T12:27:14.356Z,60.66
2023-03-06T12:30:09.789Z,60.23
2023-03-06T12:32:53.970Z,59.70
2023-03-06T12:35:28.719Z,59.91
2023-03-06T12:38:32.542Z,58.11
2023-03-06T12:41:09.965Z,57.14
2023-03-06T12:43:58.954Z,57.21
2023-03-06T12:46:29.480Z,56.63
2023-03-06T12:49:31.831Z,56.55
2023-03-06T12:52:05.735Z,57.46
2023-03-06T12:54:39.072Z,54.42
2023-03-06T12:57:10.703Z,54.16
2023-03-06T12:59:49.344Z,55.35
2023-03-06T13:02:36.714Z,56.35
2023-03-06T13:05:33.855Z,57.40
2023-03-06T13:08:29.534Z,55.37
2023-03-06T13:11:20.007Z,55.72
2023-03-06T13:13:49.752Z,55.27
2023-03-06T13:16:32.169Z,56.18
2023-03-06T13:19:12.093Z,56.82
2023-03-06T13:22:02.419Z,58.48
2023-03-06T13:24:34.888Z,58.92
2023-03-06T13:27:08.715Z,63.88
2023-03-06T13:29:39.707Z,67.47
2023-03-06T13:32:18.239Z,69.50
2023-03-06T13:34:58.358Z,66.26
2023-03-06T13:37:26.658Z,61.71
2023-03-06T13:39:57.894Z,61.05
2023-03-06T13:42:30.581Z,60.67
2023-03-06T13:45:24.417Z,58.92
2023-03-06T13:50:48.720Z,59.78
2023-03-06T13:53:45.433Z,61.24
2023-03-06T13:56:43.898Z,61.63
2023-03-06T13:59:54.389Z,62.23
2023-03-06T14:02:48.058Z,61.17
2023-03-06T14:05:18.554Z,61.43
2023-03-06T14:07:48.350Z,61.07
2023-03-06T14:10:23.628Z,59.77
2023-03-06T14:12:51.137Z,58.81
2023-03-06T14:15:25.071Z,59.64
2023-03-06T14:17:58.836Z,58.58
2023-03-06T14:20:55.498Z,58.87
2023-03-06T14:23:29.500Z,60.13
2023-03-06T14:26:25.275Z,60.90
2023-03-06T14:29:01.640Z,60.42
2023-03-06T14:31:37.202Z,62.04
2023-03-06T14:34:14.906Z,63.28
2023-03-06T14:36:42.311Z,64.24
2023-03-06T14:39:22.345Z,64.83
2023-03-06T14:42:20.209Z,65.10
2023-03-06T14:45:01.816Z,67.02
2023-03-06T14:47:33.619Z,67.76
2023-03-06T14:50:25.811Z,67.54
2023-03-06T14:53:16.677Z,65.30
2023-03-06T14:55:54.875Z,65.13
2023-03-06T14:58:46.414Z,65.78
2023-03-06T15:01:17.762Z,66.35
2023-03-06T15:03:51.630Z,65.34
2023-03-06T15:06:25.555Z,64.34
2023-03-06T15:09:02.524Z,63.96
2023-03-06T15:12:11.391Z,64.91
2023-03-06T15:14:48.290Z,64.84
2023-03-06T15:17:18.793Z,64.68
2023-03-06T15:19:49.024Z,63.48
2023-03-06T15:22:34.231Z,62.94
2023-03-06T15:25:27.926Z,62.76
2023-03-06T15:27:59.585Z,63.84
2023-03-06T15:30:31.496Z,64.52
2023-03-06T15:33:25.035Z,64.20
2023-03-06T15:36:04.129Z,64.51
2023-03-06T15:38:45.080Z,64.37
2023-03-06T15:41:32.624Z,65.66
2023-03-06T15:44:09.057Z,66.61
2023-03-06T15:46:36.286Z,65.51
2023-03-06T15:49:05.033Z,65.64
2023-03-06T15:51:33.611Z,65.69
2023-03-06T15:54:11.967Z,66.55
2023-03-06T15:56:46.613Z,66.14
2023-03-06T15:59:25.146Z,66.56
2023-03-06T16:01:54.725Z,67.19
2023-03-06T16:04:22.145Z,66.19
2023-03-06T16:06:50.145Z,66.24
2023-03-06T16:09:18.082Z,65.65
2023-03-06T16:11:52.841Z,65.11
2023-03-06T16:14:24.156Z,64.78
2023-03-06T16:16:56.977Z,66.55
2023-03-06T16:19:27.352Z,66.83
2023-03-06T16:21:57.087Z,66.82
2023-03-06T16:24:26.624Z,67.16
2023-03-06T16:26:55.920Z,67.40
2023-03-06T16:29:27.737Z,67.13
2023-03-06T16:31:58.531Z,67.16
2023-03-06T16:34:26.140Z,66.89
2023-03-06T16:36:54.673Z,67.17
2023-03-06T16:39:29.641Z,66.42
2023-03-06T16:41:59.949Z,67.30
2023-03-06T16:44:30.164Z,67.65
2023-03-06T16:47:01.372Z,68.22
2023-03-06T16:49:29.108Z,68.24
2023-03-06T16:52:04.893Z,68.46
2023-03-06T16:54:32.397Z,68.47
2023-03-06T16:57:00.649Z,69.05
2023-03-06T16:59:29.343Z,68.82
2023-03-06T17:01:57.713Z,69.86
2023-03-06T17:04:25.631Z,69.49
2023-03-06T17:06:54.229Z,69.88
2023-03-06T17:09:24.436Z,69.83
2023-03-06T17:11:52.017Z,70.50
2023-03-06T17:14:22.395Z,71.22
2023-03-06T17:16:59.082Z,71.21
2023-03-06T17:19:26.164Z,71.57
2023-03-06T17:21:54.883Z,72.04
2023-03-06T17:24:23.481Z,72.24
2023-03-06T17:26:50.877Z,72.01
2023-03-06T17:29:26.468Z,72.69
2023-03-06T17:31:54.291Z,73.53
2023-03-06T17:34:24.554Z,74.08
2023-03-06T17:36:52.638Z,73.92
2023-03-06T17:39:23.650Z,74.21
2023-03-06T17:41:51.645Z,74.92
2023-03-06T17:44:20.099Z,74.54
2023-03-06T17:46:47.785Z,74.33
2023-03-06T17:49:20.235Z,75.16
2023-03-06T17:51:49.962Z,75.96
2023-03-06T17:54:17.908Z,76.56
2023-03-06T17:56:48.144Z,77.12
2023-03-06T17:59:16.061Z,77.60
2023-03-06T18:01:46.082Z,78.25
2023-03-06T18:04:14.533Z,78.47
2023-03-06T18:06:43.257Z,79.40
2023-03-06T18:09:12.151Z,79.90
2023-03-06T18:11:40.184Z,79.90
2023-03-06T18:14:10.215Z,80.34
2023-03-06T18:16:38.221Z,80.88
2023-03-06T18:19:09.347Z,80.38
2023-03-06T18:21:37.863Z,80.73
2023-03-06T18:24:06.144Z,81.15
2023-03-06T18:26:36.094Z,81.35
2023-03-06T18:29:05.471Z,81.58
2023-03-06T18:31:41.484Z,81.98
2023-03-06T18:34:18.348Z,82.16
2023-03-06T18:36:48.106Z,81.89
2023-03-06T18:39:16.537Z,80.83
2023-03-06T18:41:46.716Z,81.53
2023-03-06T18:44:16.734Z,81.28
2023-03-06T18:46:45.357Z,81.96
2023-03-06T18:49:27.866Z,82.86
2023-03-06T18:51:57.425Z,83.11
2023-03-06T18:54:29.613Z,84.06
2023-03-06T18:56:59.455Z,85.04
2023-03-06T18:59:28.006Z,85.23
2023-03-06T19:01:58.536Z,84.14
2023-03-06T19:04:29.655Z,84.11
2023-03-06T19:06:57.772Z,84.29
2023-03-06T19:09:27.394Z,84.67
2023-03-06T19:11:58.079Z,84.88
2023-03-06T19:14:26.105Z,85.09
2023-03-06T19:16:56.222Z,85.52
2023-03-06T19:19:32.011Z,85.58
2023-03-06T19:22:03.108Z,85.62
2023-03-06T19:24:34.553Z,86.08
2023-03-06T19:27:03.770Z,86.16
2023-03-06T19:29:33.268Z,86.96
2023-03-06T19:32:02.407Z,87.76
2023-03-06T19:34:34.087Z,88.33
2023-03-06T19:37:10.189Z,88.58
2023-03-06T19:39:38.536Z,89.05
2023-03-06T19:42:07.715Z,89.15
2023-03-06T19:44:36.306Z,89.47
2023-03-06T19:47:06.488Z,90.24
2023-03-06T19:49:41.449Z,90.09
2023-03-06T19:52:10.957Z,89.77
2023-03-06T19:54:39.449Z,89.46
2023-03-06T19:57:08.109Z,89.52
2023-03-06T19:59:36.887Z,89.64
2023-03-06T20:02:06.726Z,90.23
2023-03-06T20:04:39.729Z,90.55
2023-03-06T20:07:09.509Z,90.99
2023-03-06T20:09:45.168Z,91.82
2023-03-06T20:12:14.982Z,93.12
2023-03-06T20:14:44.550Z,93.56
2023-03-06T20:17:23.242Z,93.10
2023-03-06T20:19:51.522Z,92.52
2023-03-06T20:22:20.765Z,92.34
2023-03-06T20:24:48.862Z,92.72
2023-03-06T20:27:18.351Z,92.81
2023-03-06T20:29:46.666Z,92.73
2023-03-06T20:32:14.962Z,92.94
2023-03-06T20:34:43.738Z,93.73
2023-03-06T20:37:12.258Z,95.11
2023-03-06T20:39:47.525Z,95.71
2023-03-06T20:42:16.102Z,96.03
2023-03-06T20:44:44.233Z,97.31
2023-03-06T20:47:12.635Z,97.94
2023-03-06T20:49:42.117Z,97.44
2023-03-06T20:52:11.716Z,97.18
2023-03-06T20:54:47.233Z,97.24
2023-03-06T20:57:15.803Z,97.69
2023-03-06T20:59:45.797Z,98.43
2023-03-06T21:02:16.504Z,98.99
2023-03-06T21:04:44.161Z,99.66
2023-03-06T21:07:13.810Z,100.00
2023-03-06T21:09:41.972Z,99.10
2023-03-06T21:12:10.874Z,98.30
2023-03-06T21:14:38.434Z,98.40
2023-03-06T21:17:05.993Z,98.08
2023-03-06T21:19:34.705Z,97.10
2023-03-06T21:22:02.825Z,96.58
2023-03-06T21:24:30.188Z,96.02
2023-03-06T21:26:59.001Z,96.31
2023-03-06T21:29:26.314Z,96.76
2023-03-06T21:31:53.872Z,96.47
2023-03-06T21:34:21.504Z,95.99
2023-03-06T21:36:49.239Z,95.58
2023-03-06T21:39:17.815Z,95.41
2023-03-06T21:41:52.229Z,96.15
2023-03-06T21:44:20.044Z,95.80
2023-03-06T21:46:47.666Z,94.59
2023-03-06T21:49:15.038Z,94.43
2023-03-06T21:51:42.526Z,95.07
2023-03-06T21:54:16.186Z,95.67
2023-03-06T21:56:43.707Z,96.58
2023-03-06T21:59:11.113Z,97.98
2023-03-06T22:01:38.562Z,98.48
2023-03-06T22:04:05.829Z,98.40
2023-03-06T22:06:34.104Z,98.77
2023-03-06T22:09:01.951Z,97.99
2023-03-06T22:11:31.709Z,97.26
2023-03-06T22:13:59.478Z,97.55
2023-03-06T22:16:29.058Z,97.48
2023-03-06T22:18:56.458Z,97.37
2023-03-06T22:21:24.488Z,97.45
2023-03-06T22:23:57.782Z,97.21
2023-03-06T22:26:30.143Z,98.70
2023-03-06T22:28:58.633Z,99.28
2023-03-06T22:31:28.932Z,100.00
2023-03-06T22:34:00.592Z,100.00
2023-03-06T22:36:31.219Z,100.00
2023-03-06T22:39:00.708Z,100.00
2023-03-06T22:41:29.309Z,99.65
2023-03-06T22:44:00.986Z,98.76
2023-03-06T22:46:29.794Z,97.58
2023-03-06T22:49:01.501Z,96.86
2023-03-06T22:51:36.720Z,96.01
2023-03-06T22:54:07.741Z,96.55
2023-03-06T22:56:36.869Z,97.51
2023-03-06T22:59:04.737Z,98.48
2023-03-06T23:01:34.912Z,99.42
2023-03-06T23:04:04.701Z,100.00
2023-03-06T23:06:41.008Z,100.00
2023-03-06T23:09:22.846Z,100.00
2023-03-06T23:11:50.595Z,100.00
2023-03-06T23:14:19.814Z,100.00
2023-03-06T23:16:47.187Z,100.00
2023-03-06T23:19:15.744Z,100.00
2023-03-06T23:21:43.392Z,100.00
2023-03-06T23:24:10.671Z,100.00
2023-03-06T23:26:40.946Z,100.00
2023-03-06T23:29:08.575Z,100.00
2023-03-06T23:31:38.021Z,100.00
2023-03-06T23:34:06.384Z,100.00
2023-03-06T23:36:34.214Z,100.00
2023-03-06T23:39:01.471Z,100.00
2023-03-06T23:41:29.873Z,100.00
2023-03-06T23:43:58.702Z,100.00
2023-03-06T23:46:28.014Z,100.00
2023-03-06T23:48:55.418Z,100.00
2023-03-06T23:51:23.467Z,100.00
2023-03-06T23:53:58.588Z,100.00
2023-03-06T23:56:27.925Z,100.00
2023-03-06T23:58:56.591Z,100.00
